Platzwetter Flugplatz Wels

Flugwetter Linz LOWL

[Quelle: ADDS]
METAR
LOWL 092320Z AUTO 10003KT 9999 NCD 16/11 Q1025 =
LOWL 092315Z 1000/1024 VRB03KT CAVOK TX25/1012Z TN14/1004Z TEMPO 1008/1018 09010KT
TAF
LOWL 092315Z 1000/1024 VRB03KT CAVOK TX25/1012Z TN14/1004Z TEMPO 1008/1018 09010KT =

Flugwetter Salzburg LOWS

[Quelle: ADDS]
METAR
LOWS 092320Z AUTO 16002KT 9999 NCD 13/11 Q1025 =
LOWS 092315Z 1000/1024 15006KT CAVOK TX25/1014Z TN12/1004Z BECMG 1008/1010 03009KT 9999 FEW070 BECMG 1018/1020 15006KT CAVOK
TAF
LOWS 092315Z 1000/1024 15006KT CAVOK TX25/1014Z TN12/1004Z BECMG 1008/1010 03009KT 9999 FEW070 BECMG 1018/1020 15006KT CAVOK =

Wind - Verlauf

Windrichtung - Verlauf

Temperatur - Verlauf

Relative Luftfeuchtigkeit - Verlauf

Luftdruck - Verlauf

Wir benutzen Cookies

Wir nutzen Cookies auf unserer Website. Einige von ihnen sind essenziell für den Betrieb der Seite, während andere uns helfen, diese Website und die Nutzererfahrung zu verbessern (Tracking Cookies). Sie können selbst entscheiden, ob Sie die Cookies zulassen möchten. Bitte beachten Sie, dass bei einer Ablehnung womöglich nicht mehr alle Funktionalitäten der Seite zur Verfügung stehen.